Chaplin, Canada
Current Conditions -  °F | °C
As of 2:00 PM on Friday 19 Dec 2014 (Local Time) from CYYN Reporting Station
NA  
Wind Chill: 27°   Ceiling: NA
Heat Index: 34°   Visibility: 9mi
Dew Point: 30°   Wind: 8mph
Humidity: 87%   Direction: 200°SSW
Pressure: 29.79"   Gusts: NA
Location:  50.47°N, 106.67°W
Report Text: CYYN 192000Z AUTO 20007KT 9SM 01/M01 A2979 RMK CLD MISG SLP124
Loading
Personal Weather Stations






























Interactive Weather Map New forecast layout! Learn more

10-Day Weather Forecast

Advertisements
Track Severe Weather on mobile